Time;durP1;ratioP1;P1;durP2;ratioP2;P2;SDS_P1;SDS_P2;PMS_P1;PMS_P2;Temp;Humidity;BMP_temperature;BMP_pressure;BME280_temperature;BME280_humidity;BME280_pressure;Samples;Min_cycle;Max_cycle;Signal;HPM_P1;HPM_P2
2023/08/22 00:00:15;;;;;;;4.30;2.80;;;22.40;93.80;;;;;;5016590;28;20444;-48
2023/08/22 00:02:44;;;;;;;7.00;3.00;;;22.40;94.00;;;;;;5014816;28;20449;-48
2023/08/22 00:05:10;;;;;;;3.90;2.40;;;22.30;94.10;;;;;;5015888;28;20963;-49
2023/08/22 00:07:38;;;;;;;6.20;2.37;;;22.20;94.20;;;;;;5015763;28;20441;-49
2023/08/22 00:10:06;;;;;;;7.87;2.97;;;22.20;94.20;;;;;;5016362;28;20934;-48
2023/08/22 00:12:32;;;;;;;5.07;2.53;;;22.20;94.30;;;;;;5016696;28;20433;-49
2023/08/22 00:14:59;;;;;;;5.63;2.60;;;22.10;94.40;;;;;;5015962;28;20982;-48
2023/08/22 00:17:27;;;;;;;3.90;2.50;;;22.20;94.60;;;;;;5015426;28;20438;-47
2023/08/22 00:19:53;;;;;;;5.53;2.30;;;22.20;94.60;;;;;;5015816;28;20440;-48
2023/08/22 00:22:20;;;;;;;6.00;2.23;;;22.20;94.80;;;;;;5016107;28;20426;-47
2023/08/22 00:24:47;;;;;;;6.90;2.70;;;22.40;95.00;;;;;;5016899;28;20447;-47
2023/08/22 00:27:13;;;;;;;5.43;2.33;;;22.20;94.90;;;;;;5016654;28;21013;-47
2023/08/22 00:29:40;;;;;;;4.93;2.77;;;22.20;95.00;;;;;;5017167;28;20431;-48
2023/08/22 00:32:06;;;;;;;6.03;2.93;;;22.10;95.10;;;;;;5016481;28;20943;-48
2023/08/22 00:34:36;;;;;;;4.97;2.20;;;21.80;94.90;;;;;;5015186;28;20437;-48
2023/08/22 00:37:02;;;;;;;8.90;2.50;;;22.10;95.20;;;;;;5016639;28;20448;-47
2023/08/22 00:39:29;;;;;;;7.07;2.70;;;22.00;95.20;;;;;;5015461;28;20947;-48
2023/08/22 00:41:56;;;;;;;5.50;2.77;;;22.10;95.30;;;;;;5017109;28;20436;-48
2023/08/22 00:44:22;;;;;;;7.40;2.00;;;22.10;95.40;;;;;;5016381;28;20456;-47
2023/08/22 00:46:49;;;;;;;8.50;2.40;;;22.00;95.50;;;;;;5015354;28;20575;-49
2023/08/22 00:49:15;;;;;;;3.73;2.50;;;21.80;95.50;;;;;;5017667;28;20431;-48
2023/08/22 00:51:44;;;;;;;5.83;2.50;;;22.00;95.70;;;;;;5016388;28;20465;-47
2023/08/22 00:54:13;;;;;;;6.20;2.60;;;21.60;95.50;;;;;;5015842;28;20451;-49
2023/08/22 00:56:41;;;;;;;4.27;2.10;;;22.10;95.80;;;;;;5017008;28;21108;-48
2023/08/22 00:59:09;;;;;;;4.90;2.77;;;21.90;95.80;;;;;;5016895;28;20441;-50
2023/08/22 01:01:36;;;;;;;4.30;2.47;;;21.90;95.90;;;;;;5016018;28;20442;-49
2023/08/22 01:04:02;;;;;;;4.53;2.37;;;21.90;95.90;;;;;;5015491;28;20451;-47
2023/08/22 01:06:41;;;;;;;4.03;2.20;;;21.90;95.90;;;;;;5015437;28;20488;-48
2023/08/22 01:09:14;;;;;;;7.20;2.30;;;21.90;95.80;;;;;;5016381;28;20805;-47
2023/08/22 01:11:42;;;;;;;4.60;2.50;;;21.80;95.60;;;;;;5016466;28;20463;-47
2023/08/22 01:14:12;;;;;;;4.00;2.40;;;21.90;95.60;;;;;;5015176;28;20450;-47
2023/08/22 01:16:40;;;;;;;5.53;2.70;;;21.80;95.50;;;;;;5014473;28;20488;-47
2023/08/22 01:19:09;;;;;;;2.77;1.77;;;21.80;95.60;;;;;;5014740;28;20512;-49
2023/08/22 01:21:36;;;;;;;5.87;2.10;;;21.40;95.30;;;;;;5016257;28;20916;-47
2023/08/22 01:24:06;;;;;;;6.07;2.30;;;21.80;95.40;;;;;;5015967;28;20460;-46
2023/08/22 01:26:34;;;;;;;3.40;2.33;;;21.90;95.40;;;;;;5014581;28;20495;-47
2023/08/22 01:29:09;;;;;;;3.83;2.13;;;21.90;95.30;;;;;;5014984;28;20472;-49
2023/08/22 01:31:44;;;;;;;4.07;2.10;;;21.90;95.20;;;;;;5014629;28;20463;-47
2023/08/22 01:34:18;;;;;;;4.43;2.30;;;21.90;95.20;;;;;;5014606;28;20449;-48
2023/08/22 01:36:46;;;;;;;4.30;2.10;;;21.90;95.20;;;;;;5015744;28;20491;-48
2023/08/22 01:39:17;;;;;;;3.10;2.10;;;21.90;95.10;;;;;;5015962;28;20441;-48
2023/08/22 01:41:45;;;;;;;3.83;2.10;;;21.80;95.00;;;;;;5015769;28;20493;-48
2023/08/22 01:44:12;;;;;;;8.20;2.23;;;21.50;94.70;;;;;;5014457;28;20800;-46
2023/08/22 01:46:39;;;;;;;3.93;1.63;;;21.90;94.80;;;;;;5014842;28;20495;-47
2023/08/22 01:49:06;;;;;;;3.90;2.37;;;21.90;94.80;;;;;;5015517;28;20440;-47
2023/08/22 01:51:32;;;;;;;3.43;2.20;;;21.90;94.80;;;;;;5014118;28;20454;-47
2023/08/22 01:53:59;;;;;;;4.13;1.70;;;21.90;94.80;;;;;;5014240;28;20492;-48
2023/08/22 01:56:27;;;;;;;5.40;1.90;;;21.90;94.80;;;;;;5013983;28;20460;-48
2023/08/22 01:58:53;;;;;;;5.10;2.30;;;21.80;94.80;;;;;;5013657;28;20438;-48
2023/08/22 02:01:22;;;;;;;10.10;2.47;;;21.90;94.90;;;;;;5013595;28;20831;-48
2023/08/22 02:03:48;;;;;;;3.40;1.97;;;21.90;94.90;;;;;;5015022;28;20448;-46
2023/08/22 02:06:15;;;;;;;6.20;2.10;;;22.00;95.00;;;;;;5014831;28;20489;-48
2023/08/22 02:08:41;;;;;;;5.13;2.23;;;22.10;95.10;;;;;;5013422;28;20447;-48
2023/08/22 02:11:08;;;;;;;4.03;2.40;;;22.00;95.00;;;;;;5015268;28;20439;-48
2023/08/22 02:13:36;;;;;;;4.10;2.27;;;22.00;95.10;;;;;;5014363;28;20951;-47
2023/08/22 02:16:03;;;;;;;6.80;2.80;;;22.00;95.20;;;;;;5013622;28;20505;-47
2023/08/22 02:18:30;;;;;;;4.90;1.90;;;21.90;95.20;;;;;;5014803;28;20826;-47
2023/08/22 02:20:57;;;;;;;5.17;1.80;;;21.90;95.30;;;;;;5014788;28;20441;-46
2023/08/22 02:23:26;;;;;;;9.80;2.73;;;21.90;95.40;;;;;;5014726;28;20436;-48
2023/08/22 02:25:53;;;;;;;5.57;2.37;;;21.90;95.40;;;;;;5014721;28;21052;-48
2023/08/22 02:28:19;;;;;;;4.17;2.30;;;21.90;95.50;;;;;;5014949;28;20432;-45
2023/08/22 02:30:47;;;;;;;6.30;2.10;;;21.90;95.60;;;;;;5014177;28;20445;-48
2023/08/22 02:33:14;;;;;;;5.10;2.37;;;21.40;95.40;;;;;;5015205;28;20499;-48
2023/08/22 02:35:40;;;;;;;6.57;2.57;;;21.90;95.70;;;;;;5014323;28;20469;-48
2023/08/22 02:38:07;;;;;;;7.37;2.30;;;21.90;95.70;;;;;;5015591;28;20429;-48
2023/08/22 02:40:34;;;;;;;6.90;2.60;;;21.90;95.70;;;;;;5014161;28;20445;-48
2023/08/22 02:43:00;;;;;;;5.43;2.23;;;21.90;95.70;;;;;;5014965;28;20452;-49
2023/08/22 02:45:29;;;;;;;5.60;2.57;;;21.90;95.80;;;;;;5013581;28;20489;-47
2023/08/22 02:47:57;;;;;;;3.97;2.13;;;21.90;95.80;;;;;;5014343;28;20480;-47
2023/08/22 02:50:24;;;;;;;6.93;2.50;;;21.90;95.80;;;;;;5013749;28;20540;-47
2023/08/22 02:52:51;;;;;;;4.27;2.40;;;21.90;95.80;;;;;;5014963;28;20479;-48
2023/08/22 02:55:19;;;;;;;5.77;2.17;;;21.80;95.80;;;;;;5013289;28;20473;-47
2023/08/22 02:57:46;;;;;;;5.00;2.50;;;21.90;95.90;;;;;;5013233;28;20443;-47
2023/08/22 03:00:14;;;;;;;5.10;2.43;;;21.90;95.90;;;;;;5013166;28;20475;-48
2023/08/22 03:02:41;;;;;;;4.57;2.10;;;21.90;95.90;;;;;;5014767;28;20445;-47
2023/08/22 03:05:12;;;;;;;5.60;2.80;;;21.90;95.80;;;;;;5013602;28;20835;-47
2023/08/22 03:07:39;;;;;;;4.70;2.13;;;21.90;95.80;;;;;;5012230;28;20494;-47
2023/08/22 03:10:08;;;;;;;3.40;2.10;;;22.00;95.80;;;;;;5012711;28;20457;-48
2023/08/22 03:12:36;;;;;;;6.97;2.40;;;22.00;95.80;;;;;;5012966;28;20516;-48
2023/08/22 03:15:04;;;;;;;5.50;3.50;;;22.00;95.80;;;;;;5013204;28;20507;-47
2023/08/22 03:17:34;;;;;;;7.17;2.90;;;22.00;95.80;;;;;;5012416;28;20457;-49
2023/08/22 03:20:00;;;;;;;6.23;2.50;;;21.80;95.80;;;;;;5013983;28;20456;-49
2023/08/22 03:22:29;;;;;;;8.20;2.03;;;22.00;95.80;;;;;;5013252;28;20434;-49
2023/08/22 03:24:56;;;;;;;7.03;2.70;;;22.50;96.10;;;;;;5012554;28;20465;-47
2023/08/22 03:27:26;;;;;;;5.40;2.40;;;22.00;95.90;;;;;;5012380;28;20487;-49
2023/08/22 03:29:52;;;;;;;6.87;2.50;;;22.00;95.90;;;;;;5012486;28;20537;-48
2023/08/22 03:32:19;;;;;;;6.20;2.70;;;22.00;95.80;;;;;;5013097;28;20456;-46
2023/08/22 03:34:46;;;;;;;4.63;2.77;;;22.00;95.80;;;;;;5012538;28;20950;-47
2023/08/22 03:37:12;;;;;;;5.30;2.20;;;22.00;95.80;;;;;;5013096;28;20668;-46
2023/08/22 03:39:40;;;;;;;5.13;2.13;;;22.00;95.80;;;;;;5013967;28;20439;-48
2023/08/22 03:42:08;;;;;;;4.33;2.40;;;22.00;95.70;;;;;;5012171;28;20464;-46
2023/08/22 03:44:35;;;;;;;8.80;1.93;;;22.00;95.70;;;;;;5013707;28;20454;-47
2023/08/22 03:47:02;;;;;;;3.60;2.07;;;22.00;95.60;;;;;;5034907;22;20504;-46
2023/08/22 03:49:37;;;;;;;6.83;1.97;;;22.00;95.60;;;;;;5010813;28;20464;-47
2023/08/22 03:52:04;;;;;;;5.07;1.90;;;22.00;95.50;;;;;;5010696;28;20444;-46
2023/08/22 03:54:32;;;;;;;3.50;2.10;;;22.00;95.40;;;;;;5010912;28;20876;-47
2023/08/22 03:57:00;;;;;;;3.23;2.03;;;22.00;95.30;;;;;;5010734;28;20571;-48
2023/08/22 03:59:27;;;;;;;5.03;2.63;;;22.20;95.30;;;;;;5011977;28;20957;-46
2023/08/22 04:01:53;;;;;;;7.33;2.87;;;22.00;95.10;;;;;;5012945;28;20431;-46
2023/08/22 04:04:20;;;;;;;5.53;2.40;;;22.00;95.00;;;;;;5011733;28;20454;-46
2023/08/22 04:06:47;;;;;;;5.00;1.90;;;21.90;94.90;;;;;;5012709;28;20488;-45
2023/08/22 04:09:13;;;;;;;4.53;1.60;;;21.90;94.90;;;;;;5013048;28;20438;-47
2023/08/22 04:11:43;;;;;;;4.63;2.27;;;21.90;94.90;;;;;;5012905;28;20448;-47
2023/08/22 04:14:11;;;;;;;4.10;2.10;;;21.90;94.80;;;;;;5013124;28;20410;-46
2023/08/22 04:16:39;;;;;;;7.07;2.73;;;21.80;94.80;;;;;;5010861;28;20472;-46
2023/08/22 04:19:05;;;;;;;5.47;2.30;;;21.90;94.80;;;;;;5011881;28;20491;-47
2023/08/22 04:21:32;;;;;;;5.23;2.33;;;21.90;94.80;;;;;;5010706;28;20451;-46
2023/08/22 04:23:59;;;;;;;4.73;2.30;;;21.90;94.70;;;;;;5011241;28;20442;-47
2023/08/22 04:26:27;;;;;;;3.63;2.17;;;21.80;94.60;;;;;;5011159;28;20479;-47
2023/08/22 04:28:53;;;;;;;6.13;2.63;;;21.90;94.60;;;;;;5011435;28;20468;-46
2023/08/22 04:31:21;;;;;;;10.60;2.67;;;21.90;94.50;;;;;;5011373;28;20525;-48
2023/08/22 04:33:48;;;;;;;4.20;2.00;;;21.90;94.40;;;;;;5012021;28;20551;-47
2023/08/22 04:36:15;;;;;;;6.50;2.70;;;21.90;94.30;;;;;;5014112;28;20529;-46
2023/08/22 04:38:42;;;;;;;6.13;2.57;;;21.90;94.30;;;;;;5015051;28;20480;-47
2023/08/22 04:41:08;;;;;;;7.60;2.40;;;21.90;94.30;;;;;;5015419;28;20461;-46
2023/08/22 04:43:55;;;;;;;5.57;2.00;;;21.80;94.30;;;;;;5014217;28;20828;-47
2023/08/22 04:46:23;;;;;;;5.63;2.57;;;21.90;94.40;;;;;;5013687;28;20482;-46
2023/08/22 04:48:49;;;;;;;4.93;2.23;;;21.90;94.40;;;;;;5013605;28;20851;-47
2023/08/22 04:51:16;;;;;;;5.37;1.90;;;21.90;94.40;;;;;;5013894;28;20448;-47
2023/08/22 04:53:45;;;;;;;3.30;1.50;;;22.00;94.30;;;;;;5013828;28;20569;-47
2023/08/22 04:56:12;;;;;;;4.27;2.30;;;22.00;94.20;;;;;;5013554;28;20477;-47
2023/08/22 04:58:39;;;;;;;6.63;2.13;;;22.10;94.20;;;;;;5013273;28;20450;-48
2023/08/22 05:01:06;;;;;;;5.20;2.20;;;22.00;93.80;;;;;;5013720;28;20553;-46
2023/08/22 05:03:34;;;;;;;5.20;2.10;;;22.10;94.10;;;;;;5013610;28;20880;-48
2023/08/22 05:06:01;;;;;;;7.57;2.20;;;22.10;93.40;;;;;;5013594;28;20560;-48
2023/08/22 05:08:28;;;;;;;6.17;2.57;;;22.20;93.30;;;;;;5013039;28;20583;-47
2023/08/22 05:10:55;;;;;;;9.00;3.00;;;22.20;93.30;;;;;;5013732;28;20459;-46
2023/08/22 05:13:21;;;;;;;13.77;3.10;;;22.00;93.10;;;;;;5013231;28;20449;-48
2023/08/22 05:15:48;;;;;;;10.93;2.70;;;22.20;93.10;;;;;;5013370;28;20466;-47
2023/08/22 05:18:15;;;;;;;3.17;1.43;;;22.30;93.10;;;;;;5014068;28;20429;-47
2023/08/22 05:20:43;;;;;;;8.07;2.33;;;22.30;93.00;;;;;;5013154;28;20458;-47
2023/08/22 05:23:10;;;;;;;5.83;1.80;;;22.30;92.90;;;;;;5013040;28;20457;-47
2023/08/22 05:25:36;;;;;;;5.10;2.47;;;22.30;92.90;;;;;;5013086;28;20538;-47
2023/08/22 05:28:03;;;;;;;5.53;2.30;;;22.30;92.80;;;;;;5012326;28;20477;-47
2023/08/22 05:30:31;;;;;;;5.47;2.70;;;22.40;92.90;;;;;;5012541;28;20468;-45
2023/08/22 05:32:59;;;;;;;9.00;2.43;;;22.40;92.90;;;;;;5012516;28;20450;-47
2023/08/22 05:35:25;;;;;;;8.37;3.17;;;22.60;92.90;;;;;;5013600;28;21047;-46
2023/08/22 05:37:53;;;;;;;10.27;2.27;;;22.50;92.90;;;;;;5013423;28;20432;-48
2023/08/22 05:40:20;;;;;;;4.80;2.60;;;22.40;92.90;;;;;;5012488;28;20876;-47
2023/08/22 05:42:46;;;;;;;4.77;2.47;;;22.60;92.90;;;;;;5012352;28;20455;-46
2023/08/22 05:45:13;;;;;;;5.30;2.20;;;22.60;92.90;;;;;;5013515;28;20456;-47
2023/08/22 05:47:40;;;;;;;3.90;2.13;;;22.70;92.90;;;;;;5010828;28;20479;-46
2023/08/22 05:50:08;;;;;;;7.23;2.97;;;22.70;92.90;;;;;;5012155;28;20540;-47
2023/08/22 05:52:35;;;;;;;8.37;2.60;;;22.80;92.90;;;;;;5013443;28;20531;-47
2023/08/22 05:55:03;;;;;;;4.67;2.30;;;22.90;92.90;;;;;;5012436;28;20889;-47
2023/08/22 05:57:32;;;;;;;8.83;2.47;;;23.00;92.80;;;;;;5012519;28;20533;-48
2023/08/22 06:00:03;;;;;;;9.10;2.10;;;23.00;92.60;;;;;;5012632;28;20441;-46
2023/08/22 06:02:32;;;;;;;4.47;2.30;;;23.10;92.50;;;;;;5014194;28;20876;-47
2023/08/22 06:04:59;;;;;;;4.87;2.47;;;23.10;92.40;;;;;;5012852;28;20509;-48
2023/08/22 06:07:28;;;;;;;8.30;2.27;;;23.10;92.40;;;;;;5012122;28;20479;-49
2023/08/22 06:09:55;;;;;;;9.00;2.30;;;23.10;92.40;;;;;;5014616;28;20802;-48
2023/08/22 06:12:23;;;;;;;5.70;2.17;;;23.10;92.40;;;;;;5012757;28;20445;-47
2023/08/22 06:14:50;;;;;;;4.83;3.20;;;23.10;92.30;;;;;;5012716;28;20516;-48
2023/08/22 06:17:16;;;;;;;5.20;2.20;;;23.00;92.30;;;;;;5012496;28;20469;-48
2023/08/22 06:19:43;;;;;;;7.10;2.50;;;23.00;92.10;;;;;;5012488;28;20644;-46
2023/08/22 06:22:09;;;;;;;4.17;1.87;;;23.00;92.40;;;;;;5011706;28;20453;-47
2023/08/22 06:24:37;;;;;;;9.80;2.43;;;23.00;92.40;;;;;;5013877;28;20438;-47
2023/08/22 06:27:03;;;;;;;4.60;1.90;;;22.80;92.30;;;;;;5012179;28;20489;-47
2023/08/22 06:29:32;;;;;;;5.27;2.40;;;23.10;92.40;;;;;;5012038;28;21003;-46
2023/08/22 06:32:00;;;;;;;5.20;2.40;;;23.20;92.40;;;;;;5012072;28;20871;-47
2023/08/22 06:34:27;;;;;;;4.83;2.10;;;23.30;92.30;;;;;;5011023;28;20455;-46
2023/08/22 06:36:54;;;;;;;5.60;2.00;;;23.40;92.20;;;;;;5011117;28;20470;-47
2023/08/22 06:39:20;;;;;;;4.83;2.40;;;23.50;92.10;;;;;;5011482;28;20441;-47
2023/08/22 06:41:47;;;;;;;5.77;2.17;;;23.60;91.90;;;;;;5010830;28;20454;-46
2023/08/22 06:44:15;;;;;;;7.50;2.53;;;23.60;91.70;;;;;;5012183;28;20454;-48
2023/08/22 06:46:43;;;;;;;6.83;2.13;;;23.70;91.50;;;;;;5011779;28;20978;-48
2023/08/22 06:49:10;;;;;;;3.27;1.93;;;23.70;91.40;;;;;;5010701;28;20488;-48
2023/08/22 06:51:37;;;;;;;5.30;2.90;;;23.60;91.30;;;;;;5010972;28;21061;-48
2023/08/22 06:54:04;;;;;;;6.97;2.40;;;23.60;91.30;;;;;;5012048;28;20466;-47
2023/08/22 06:56:30;;;;;;;5.60;2.13;;;23.60;91.20;;;;;;5011932;28;20812;-47
2023/08/22 06:58:57;;;;;;;8.70;2.43;;;23.70;91.20;;;;;;5010840;28;20892;-48
2023/08/22 07:01:23;;;;;;;10.50;2.23;;;23.80;91.10;;;;;;5011613;28;20437;-47
2023/08/22 07:03:51;;;;;;;4.80;2.77;;;23.90;91.10;;;;;;5011964;28;20931;-48
2023/08/22 07:06:18;;;;;;;4.60;1.90;;;24.00;91.10;;;;;;5011944;28;20438;-48
2023/08/22 07:08:44;;;;;;;6.00;2.03;;;23.90;90.90;;;;;;5011809;28;20487;-47
2023/08/22 07:11:11;;;;;;;4.00;2.33;;;24.10;90.90;;;;;;5012027;28;20439;-47
2023/08/22 07:13:38;;;;;;;9.43;2.60;;;24.10;91.00;;;;;;5012348;28;20458;-47
2023/08/22 07:16:05;;;;;;;5.13;2.30;;;24.00;91.10;;;;;;5011578;28;20451;-47
2023/08/22 07:18:31;;;;;;;7.53;2.10;;;24.00;91.00;;;;;;5011435;28;20902;-47
2023/08/22 07:21:04;;;;;;;8.00;2.57;;;24.00;91.00;;;;;;5010875;28;20436;-47
2023/08/22 07:23:31;;;;;;;5.80;2.03;;;24.00;91.00;;;;;;5011548;28;20414;-47
2023/08/22 07:25:57;;;;;;;9.23;2.13;;;23.90;90.80;;;;;;5011740;28;20458;-48
2023/08/22 07:28:24;;;;;;;4.50;1.80;;;23.90;90.70;;;;;;5011229;28;20496;-47
2023/08/22 07:30:51;;;;;;;6.23;1.90;;;23.80;90.50;;;;;;5011725;28;20602;-48
2023/08/22 07:33:17;;;;;;;6.80;2.40;;;23.70;90.50;;;;;;5011451;28;20444;-47
2023/08/22 07:35:45;;;;;;;5.90;2.10;;;23.80;90.50;;;;;;5011762;28;20464;-48
2023/08/22 07:38:12;;;;;;;3.03;1.90;;;23.90;90.60;;;;;;5011497;28;20429;-48
2023/08/22 07:40:40;;;;;;;5.80;2.00;;;23.90;90.30;;;;;;5011606;28;20439;-48
2023/08/22 07:43:08;;;;;;;7.13;2.07;;;23.90;90.30;;;;;;5011705;28;20438;-47
2023/08/22 07:45:34;;;;;;;3.17;2.03;;;23.90;90.30;;;;;;5011736;28;20479;-47
2023/08/22 07:48:01;;;;;;;7.47;2.37;;;23.90;90.30;;;;;;5011677;28;20828;-47
2023/08/22 07:50:27;;;;;;;4.10;1.73;;;23.90;90.30;;;;;;5011382;28;20436;-46
2023/08/22 07:52:54;;;;;;;4.60;1.90;;;24.00;90.30;;;;;;5011398;28;20448;-48
2023/08/22 07:55:23;;;;;;;5.27;2.20;;;24.00;90.10;;;;;;5011306;28;20452;-48
2023/08/22 07:57:50;;;;;;;8.77;2.43;;;24.10;90.00;;;;;;5010868;28;20436;-48
2023/08/22 08:00:17;;;;;;;5.43;2.23;;;24.10;89.80;;;;;;5011486;28;20547;-48
2023/08/22 08:02:46;;;;;;;6.63;2.40;;;24.20;89.60;;;;;;5011473;28;20448;-49
2023/08/22 08:05:13;;;;;;;9.30;2.30;;;24.20;89.50;;;;;;5011423;28;20444;-48
2023/08/22 08:07:39;;;;;;;5.57;2.60;;;24.30;89.40;;;;;;5011014;28;20800;-49
2023/08/22 08:10:07;;;;;;;7.50;2.03;;;24.30;89.10;;;;;;5011709;28;20435;-48
2023/08/22 08:12:35;;;;;;;5.83;1.73;;;24.30;88.80;;;;;;5013631;28;20450;-47
2023/08/22 08:15:03;;;;;;;6.10;1.73;;;24.10;88.40;;;;;;5015076;28;20444;-47
2023/08/22 08:17:29;;;;;;;4.07;1.97;;;24.40;88.30;;;;;;5014642;28;20455;-47
2023/08/22 08:19:56;;;;;;;8.10;2.60;;;24.30;88.00;;;;;;5015241;28;20428;-47
2023/08/22 08:22:23;;;;;;;5.63;2.17;;;24.20;88.30;;;;;;5014838;28;20444;-47
2023/08/22 08:24:50;;;;;;;4.97;2.20;;;24.20;88.70;;;;;;5014959;28;20794;-47
2023/08/22 08:27:16;;;;;;;7.13;2.20;;;24.20;88.70;;;;;;5014472;28;21039;-47
2023/08/22 08:29:44;;;;;;;3.63;1.87;;;24.20;88.70;;;;;;5013400;28;21010;-47
2023/08/22 08:32:11;;;;;;;6.17;2.00;;;24.20;88.40;;;;;;5014903;28;20403;-46
2023/08/22 08:34:38;;;;;;;11.27;1.90;;;24.30;88.80;;;;;;5014671;28;20442;-47
2023/08/22 08:37:05;;;;;;;5.73;2.03;;;24.20;88.60;;;;;;5011406;28;20475;-48
2023/08/22 08:39:31;;;;;;;6.83;2.93;;;24.30;88.70;;;;;;5013636;28;20462;-47
2023/08/22 08:42:04;;;;;;;4.77;1.70;;;24.30;88.80;;;;;;5013848;28;20501;-46
2023/08/22 08:44:33;;;;;;;9.33;2.80;;;24.30;88.90;;;;;;5014637;28;20448;-46
2023/08/22 08:47:02;;;;;;;10.23;2.50;;;24.40;89.10;;;;;;5014295;28;20472;-47
2023/08/22 08:49:31;;;;;;;5.43;2.17;;;24.50;89.10;;;;;;5014175;28;20479;-47
2023/08/22 08:52:01;;;;;;;6.60;2.00;;;24.50;88.70;;;;;;5014404;28;20451;-45
2023/08/22 08:54:28;;;;;;;6.97;2.00;;;24.50;88.80;;;;;;5014410;28;20436;-46
2023/08/22 08:56:55;;;;;;;9.70;2.00;;;24.50;88.60;;;;;;5013847;28;20461;-47
2023/08/22 08:59:21;;;;;;;7.57;2.00;;;24.50;88.80;;;;;;5013762;28;20487;-45
2023/08/22 09:01:50;;;;;;;6.93;2.00;;;24.60;88.90;;;;;;5014172;28;20443;-47
2023/08/22 09:04:19;;;;;;;8.00;2.30;;;24.60;89.00;;;;;;5013779;28;20534;-47
2023/08/22 09:06:46;;;;;;;5.47;2.00;;;24.60;89.10;;;;;;5013367;28;20456;-46
2023/08/22 09:09:14;;;;;;;7.97;2.40;;;24.80;89.10;;;;;;5012056;28;20525;-47
2023/08/22 09:11:43;;;;;;;7.80;1.90;;;25.00;88.90;;;;;;5006958;28;20445;-47
2023/08/22 09:14:10;;;;;;;8.83;2.30;;;25.20;88.60;;;;;;5013251;28;20514;-47
2023/08/22 09:16:36;;;;;;;5.07;2.10;;;25.40;88.00;;;;;;5013455;28;20509;-46
2023/08/22 09:19:03;;;;;;;6.90;2.70;;;25.60;87.50;;;;;;5013235;28;20440;-46
2023/08/22 09:21:32;;;;;;;6.50;2.13;;;25.70;87.40;;;;;;5013029;28;20444;-47
2023/08/22 09:24:09;;;;;;;8.57;2.80;;;25.80;87.00;;;;;;5010761;28;20458;-47
2023/08/22 09:26:36;;;;;;;4.83;2.40;;;25.90;86.80;;;;;;5006492;28;20899;-47
2023/08/22 09:29:07;;;;;;;4.90;2.00;;;26.10;86.40;;;;;;5007685;28;20580;-46
2023/08/22 09:31:35;;;;;;;5.73;1.70;;;26.30;85.80;;;;;;5013477;28;20969;-46
2023/08/22 09:34:09;;;;;;;4.33;1.80;;;26.30;85.10;;;;;;5013417;28;20459;-47
2023/08/22 09:36:45;;;;;;;5.13;2.47;;;26.40;84.90;;;;;;4997475;28;20462;-47
2023/08/22 09:39:13;;;;;;;3.17;1.70;;;26.50;84.70;;;;;;5013228;28;20446;-46
2023/08/22 09:41:41;;;;;;;8.57;2.73;;;26.50;84.70;;;;;;5013029;28;20440;-47
2023/08/22 09:44:10;;;;;;;5.60;2.10;;;26.60;84.40;;;;;;5011452;28;20824;-47
2023/08/22 09:46:40;;;;;;;4.70;2.10;;;26.60;83.90;;;;;;5012688;28;20564;-47
2023/08/22 09:49:10;;;;;;;8.23;2.53;;;26.70;83.60;;;;;;5013153;28;20515;-47
2023/08/22 09:51:40;;;;;;;5.70;2.43;;;26.90;83.20;;;;;;5013254;28;20447;-46
2023/08/22 09:54:07;;;;;;;5.37;2.30;;;27.00;82.90;;;;;;5012891;28;20440;-47
2023/08/22 09:56:35;;;;;;;4.23;1.80;;;27.00;82.50;;;;;;5012442;28;20456;-47
2023/08/22 09:59:02;;;;;;;7.00;2.73;;;27.00;82.30;;;;;;5012607;28;20421;-47
2023/08/22 10:01:29;;;;;;;6.00;2.00;;;26.90;81.90;;;;;;5012659;28;20859;-47
2023/08/22 10:03:57;;;;;;;3.60;2.07;;;27.00;81.80;;;;;;5011426;28;20452;-46
2023/08/22 10:06:30;;;;;;;8.67;2.20;;;27.00;81.70;;;;;;5012852;28;20462;-46
2023/08/22 10:08:59;;;;;;;6.53;2.27;;;27.00;82.00;;;;;;5010898;28;20471;-47
2023/08/22 10:11:29;;;;;;;6.40;2.27;;;26.90;82.30;;;;;;5012708;28;20490;-48
2023/08/22 10:13:55;;;;;;;6.07;3.03;;;26.90;82.50;;;;;;5012581;28;20547;-47
2023/08/22 10:16:22;;;;;;;7.17;2.63;;;26.80;82.20;;;;;;5011104;28;20472;-46
2023/08/22 10:19:01;;;;;;;10.20;2.63;;;26.80;82.10;;;;;;5008089;28;20441;-46
2023/08/22 10:21:31;;;;;;;5.70;2.67;;;26.80;81.30;;;;;;5012181;28;20496;-48
2023/08/22 10:23:59;;;;;;;3.30;1.80;;;26.90;81.40;;;;;;5012080;28;20456;-47
2023/08/22 10:26:47;;;;;;;5.80;1.73;;;27.10;81.60;;;;;;5011805;28;20451;-47
2023/08/22 10:29:15;;;;;;;4.80;1.93;;;27.10;80.50;;;;;;5012270;28;20472;-48
2023/08/22 10:32:19;;;;;;;4.23;2.17;;;27.50;80.40;;;;;;5012234;28;20444;-47
2023/08/22 10:35:25;;;;;;;5.20;2.30;;;27.20;79.90;;;;;;4994612;28;20448;-47
2023/08/22 10:37:52;;;;;;;5.43;2.20;;;27.20;80.70;;;;;;5011980;28;20472;-47
2023/08/22 10:40:29;;;;;;;6.90;2.13;;;27.20;80.60;;;;;;5011746;28;20891;-47
2023/08/22 10:43:07;;;;;;;6.70;2.10;;;27.20;80.80;;;;;;5011832;28;21089;-47
2023/08/22 10:45:38;;;;;;;5.93;2.37;;;27.30;79.10;;;;;;5011438;28;20521;-47
2023/08/22 10:48:12;;;;;;;5.23;2.20;;;27.30;78.00;;;;;;5011911;28;20432;-47
2023/08/22 10:50:43;;;;;;;4.93;2.27;;;27.40;78.10;;;;;;4997950;28;20483;-47
2023/08/22 10:53:19;;;;;;;6.50;2.57;;;27.40;79.10;;;;;;5011627;28;20441;-48
2023/08/22 10:55:47;;;;;;;5.70;1.80;;;27.60;79.80;;;;;;5011828;28;20474;-48
2023/08/22 10:58:37;;;;;;;4.20;2.40;;;27.50;80.40;;;;;;5011607;28;20923;-47
2023/08/22 11:01:06;;;;;;;7.47;2.23;;;27.50;81.20;;;;;;5011912;28;20546;-47
2023/08/22 11:03:33;;;;;;;7.53;2.70;;;27.30;81.90;;;;;;5007100;28;20455;-47
2023/08/22 11:06:00;;;;;;;5.43;2.13;;;27.30;82.30;;;;;;5002091;28;20472;-47
2023/08/22 11:08:26;;;;;;;4.57;2.40;;;27.20;82.40;;;;;;5010184;28;20464;-47
2023/08/22 11:10:57;;;;;;;7.87;2.47;;;27.10;82.60;;;;;;5011036;28;20437;-47
2023/08/22 11:13:35;;;;;;;6.37;2.07;;;27.00;82.90;;;;;;5010173;28;20483;-46
2023/08/22 11:16:02;;;;;;;7.57;2.13;;;27.00;83.30;;;;;;5006163;28;20479;-48
2023/08/22 11:18:28;;;;;;;5.23;2.23;;;26.90;83.80;;;;;;5011011;28;20472;-47
2023/08/22 11:20:56;;;;;;;4.83;1.73;;;26.80;83.60;;;;;;5011329;28;20440;-47
2023/08/22 11:23:22;;;;;;;6.00;2.23;;;26.80;83.60;;;;;;5011525;28;20451;-48
2023/08/22 11:25:49;;;;;;;7.00;2.30;;;26.60;83.70;;;;;;5010250;28;20472;-47
2023/08/22 11:28:17;;;;;;;3.63;2.10;;;26.60;83.50;;;;;;5011225;28;20455;-47
2023/08/22 11:30:44;;;;;;;6.63;1.90;;;26.50;82.80;;;;;;5010447;28;20507;-46
2023/08/22 11:33:19;;;;;;;10.03;1.90;;;26.70;82.50;;;;;;4997360;28;20884;-46
2023/08/22 11:35:46;;;;;;;4.30;1.90;;;26.80;82.20;;;;;;5021270;28;20990;-47
2023/08/22 11:38:13;;;;;;;4.33;2.00;;;26.70;81.90;;;;;;5011049;28;20440;-46
2023/08/22 11:40:42;;;;;;;4.57;2.50;;;26.70;81.80;;;;;;5011662;28;20481;-46
2023/08/22 11:43:09;;;;;;;3.10;2.00;;;26.60;81.40;;;;;;5011400;28;20475;-46
2023/08/22 11:45:46;;;;;;;5.87;2.03;;;26.40;82.10;;;;;;5014686;28;20887;-46
2023/08/22 11:48:16;;;;;;;3.90;1.90;;;26.30;81.90;;;;;;5030467;28;20468;-47
2023/08/22 11:50:44;;;;;;;4.93;2.03;;;26.30;81.70;;;;;;5007331;28;20487;-47
2023/08/22 11:53:12;;;;;;;7.07;2.10;;;26.40;81.40;;;;;;5019393;28;20471;-47
2023/08/22 11:55:40;;;;;;;3.23;1.93;;;26.40;80.00;;;;;;5015194;28;20468;-46
2023/08/22 11:58:10;;;;;;;3.10;1.77;;;26.50;79.30;;;;;;5014812;28;20471;-47
2023/08/22 12:00:37;;;;;;;2.80;1.70;;;26.50;79.20;;;;;;5008085;28;20470;-47
2023/08/22 12:03:06;;;;;;;5.27;2.13;;;26.60;79.50;;;;;;5012140;28;20456;-47
2023/08/22 12:05:35;;;;;;;3.53;2.00;;;26.60;78.90;;;;;;5003832;28;20457;-47
2023/08/22 12:08:17;;;;;;;3.60;1.80;;;26.80;78.70;;;;;;4998130;28;20465;-47
2023/08/22 12:10:44;;;;;;;5.50;2.00;;;26.80;77.20;;;;;;5000235;28;20491;-46
2023/08/22 12:13:12;;;;;;;2.83;1.77;;;27.10;76.40;;;;;;5014671;28;20937;-47
2023/08/22 12:15:39;;;;;;;7.63;2.10;;;27.30;75.90;;;;;;5014377;28;20469;-46
2023/08/22 12:18:07;;;;;;;3.93;1.87;;;27.30;75.70;;;;;;5014313;28;20440;-46
2023/08/22 12:20:35;;;;;;;3.00;2.00;;;27.20;76.30;;;;;;4999547;28;20536;-47
2023/08/22 12:23:01;;;;;;;7.07;1.70;;;27.20;75.80;;;;;;5014387;28;20447;-48
2023/08/22 12:25:28;;;;;;;5.23;2.67;;;27.20;75.50;;;;;;5014630;28;20467;-46
2023/08/22 12:27:55;;;;;;;6.97;2.73;;;27.20;75.30;;;;;;5013894;28;20807;-47
2023/08/22 12:30:21;;;;;;;4.90;2.10;;;27.20;75.30;;;;;;5014449;28;20449;-47
2023/08/22 12:32:48;;;;;;;9.97;2.60;;;27.20;75.20;;;;;;5014537;28;20527;-48
2023/08/22 12:35:17;;;;;;;4.60;2.23;;;27.30;74.80;;;;;;5015044;28;20467;-47
2023/08/22 12:37:44;;;;;;;5.60;2.33;;;27.20;74.80;;;;;;5013872;28;20919;-47
2023/08/22 12:40:11;;;;;;;4.30;2.10;;;27.20;74.10;;;;;;5010890;28;20539;-47
2023/08/22 12:42:39;;;;;;;6.47;2.33;;;27.20;73.70;;;;;;4998824;28;20447;-49
2023/08/22 12:45:06;;;;;;;4.53;2.97;;;27.10;73.80;;;;;;5012731;28;20455;-46
2023/08/22 12:47:33;;;;;;;4.10;2.70;;;27.20;73.10;;;;;;5013667;28;21226;-48
2023/08/22 12:50:00;;;;;;;6.40;2.77;;;27.20;71.90;;;;;;5011317;28;20570;-48